createdAt,value
2023-04-28T00:00:04.655Z,51.01
2023-04-28T00:02:34.384Z,51.37
2023-04-28T00:05:02.574Z,51.68
2023-04-28T00:07:30.716Z,52.71
2023-04-28T00:09:58.551Z,52.77
2023-04-28T00:12:26.522Z,53.43
2023-04-28T00:14:54.736Z,53.19
2023-04-28T00:17:24.129Z,52.66
2023-04-28T00:19:52.994Z,53.14
2023-04-28T00:22:20.914Z,52.40
2023-04-28T00:24:48.785Z,52.93
2023-04-28T00:27:16.749Z,53.54
2023-04-28T00:29:44.778Z,53.38
2023-04-28T00:32:13.603Z,53.10
2023-04-28T00:34:43.018Z,53.22
2023-04-28T00:37:10.916Z,53.95
2023-04-28T00:39:38.760Z,53.37
2023-04-28T00:42:06.738Z,54.15
2023-04-28T00:44:34.628Z,53.27
2023-04-28T00:47:02.684Z,54.26
2023-04-28T00:49:31.369Z,54.27
2023-04-28T00:52:03.777Z,54.52
2023-04-28T00:54:31.829Z,54.44
2023-04-28T00:56:59.833Z,54.43
2023-04-28T00:59:27.665Z,54.99
2023-04-28T01:01:56.324Z,54.37
2023-04-28T01:04:25.033Z,54.35
2023-04-28T01:06:54.634Z,54.26
2023-04-28T01:09:23.976Z,53.41
2023-04-28T01:11:53.470Z,53.64
2023-04-28T01:14:35.722Z,53.78
2023-04-28T01:17:04.729Z,53.64
2023-04-28T01:19:32.771Z,53.69
2023-04-28T01:22:01.043Z,54.38
2023-04-28T01:24:30.336Z,54.44
2023-04-28T01:27:03.320Z,53.42
2023-04-28T01:29:31.234Z,53.71
2023-04-28T01:31:59.576Z,54.05
2023-04-28T01:34:27.724Z,53.25
2023-04-28T01:36:56.425Z,53.89
2023-04-28T01:39:24.554Z,52.87
2023-04-28T01:41:53.805Z,53.35
2023-04-28T01:44:21.815Z,52.63
2023-04-28T01:46:49.937Z,52.40
2023-04-28T01:49:17.890Z,52.40
2023-04-28T01:51:45.863Z,52.19
2023-04-28T01:54:13.773Z,53.53
2023-04-28T01:56:42.314Z,53.57
2023-04-28T01:59:13.972Z,53.27
2023-04-28T02:01:41.861Z,53.27
2023-04-28T02:04:10.066Z,52.82
2023-04-28T02:06:39.335Z,53.14
2023-04-28T02:09:07.337Z,53.63
2023-04-28T02:11:35.280Z,53.54
2023-04-28T02:14:03.352Z,53.80
2023-04-28T02:16:33.246Z,53.39
2023-04-28T02:19:01.651Z,54.08
2023-04-28T02:21:29.636Z,54.25
2023-04-28T02:23:57.693Z,54.40
2023-04-28T02:26:25.864Z,54.15
2023-04-28T02:28:53.848Z,54.79
2023-04-28T02:31:21.782Z,54.37
2023-04-28T02:33:51.139Z,54.03
2023-04-28T02:36:19.152Z,54.89
2023-04-28T02:38:47.076Z,55.02
2023-04-28T02:41:15.551Z,54.83
2023-04-28T02:43:43.585Z,54.77
2023-04-28T02:46:11.763Z,53.87
2023-04-28T02:48:40.727Z,54.45
2023-04-28T02:51:10.666Z,54.32
2023-04-28T02:53:39.146Z,54.86
2023-04-28T02:56:07.554Z,54.38
2023-04-28T02:58:35.608Z,55.11
2023-04-28T03:01:04.980Z,54.92
2023-04-28T03:03:33.659Z,55.21
2023-04-28T03:06:01.815Z,55.67
2023-04-28T03:08:31.093Z,55.26
2023-04-28T03:10:58.929Z,55.10
2023-04-28T03:13:27.245Z,55.11
2023-04-28T03:15:55.489Z,55.13
2023-04-28T03:18:24.530Z,55.55
2023-04-28T03:20:52.493Z,55.82
2023-04-28T03:23:21.112Z,55.77
2023-04-28T03:25:50.435Z,56.11
2023-04-28T03:28:18.415Z,56.24
2023-04-28T03:30:46.351Z,55.94
2023-04-28T03:33:14.312Z,56.56
2023-04-28T03:35:42.318Z,57.12
2023-04-28T03:38:10.714Z,57.39
2023-04-28T03:40:39.057Z,57.24
2023-04-28T03:43:14.081Z,57.95
2023-04-28T03:45:50.368Z,58.07
2023-04-28T03:48:18.348Z,58.20
2023-04-28T03:50:46.446Z,58.41
2023-04-28T03:53:14.514Z,58.25
2023-04-28T03:55:42.443Z,57.62
2023-04-28T03:58:10.666Z,57.63
2023-04-28T04:00:40.088Z,57.25
2023-04-28T04:03:08.217Z,57.27
2023-04-28T04:05:36.662Z,56.84
2023-04-28T04:08:06.011Z,56.23
2023-04-28T04:10:34.440Z,55.82
2023-04-28T04:13:02.381Z,55.29
2023-04-28T04:15:30.373Z,55.04
2023-04-28T04:18:00.392Z,54.19
2023-04-28T04:20:35.581Z,54.07
2023-04-28T04:23:03.700Z,53.67
2023-04-28T04:25:32.212Z,54.70
2023-04-28T04:28:00.677Z,55.10
2023-04-28T04:30:28.984Z,55.99
2023-04-28T04:32:56.928Z,55.98
2023-04-28T04:35:26.506Z,56.13
2023-04-28T04:37:54.775Z,56.93
2023-04-28T04:40:22.764Z,56.84
2023-04-28T04:42:51.514Z,56.39
2023-04-28T04:45:21.408Z,56.29
2023-04-28T04:47:50.636Z,57.15
2023-04-28T04:50:19.033Z,57.13
2023-04-28T04:52:48.338Z,56.83
2023-04-28T04:55:16.481Z,56.80
2023-04-28T04:57:44.621Z,56.93
2023-04-28T05:00:30.554Z,56.33
2023-04-28T05:03:01.555Z,56.65
2023-04-28T05:05:29.655Z,56.05
2023-04-28T05:08:14.161Z,55.90
2023-04-28T05:10:42.315Z,55.27
2023-04-28T05:13:10.749Z,53.82
2023-04-28T05:15:39.424Z,54.95
2023-04-28T05:18:28.803Z,54.90
2023-04-28T05:20:56.914Z,54.13
2023-04-28T05:23:26.426Z,53.71
2023-04-28T05:25:54.385Z,53.21
2023-04-28T05:28:22.492Z,52.04
2023-04-28T05:30:53.899Z,52.36
2023-04-28T05:33:22.415Z,51.85
2023-04-28T05:35:50.516Z,52.21
2023-04-28T05:38:18.596Z,52.46
2023-04-28T05:40:49.646Z,51.85
2023-04-28T05:43:18.251Z,52.48
2023-04-28T05:45:46.400Z,53.29
2023-04-28T05:48:14.817Z,53.47
2023-04-28T05:50:42.705Z,53.21
2023-04-28T05:53:12.007Z,53.06
2023-04-28T05:55:40.410Z,52.80
2023-04-28T05:58:09.728Z,52.25
2023-04-28T06:00:38.824Z,52.67
2023-04-28T06:03:07.107Z,52.27
2023-04-28T06:05:35.361Z,52.87
2023-04-28T06:08:03.592Z,52.70
2023-04-28T06:10:32.624Z,52.88
2023-04-28T06:13:00.516Z,52.67
2023-04-28T06:15:30.086Z,52.44
2023-04-28T06:17:59.772Z,52.27
2023-04-28T06:20:27.646Z,52.54
2023-04-28T06:22:56.201Z,52.07
2023-04-28T06:25:24.211Z,51.91
2023-04-28T06:27:52.185Z,52.16
2023-04-28T06:30:22.460Z,51.70
2023-04-28T06:32:52.261Z,51.56
2023-04-28T06:35:20.524Z,51.51
2023-04-28T06:37:48.512Z,51.52
2023-04-28T06:40:17.052Z,51.23
2023-04-28T06:42:52.394Z,50.92
2023-04-28T06:45:25.237Z,50.82
2023-04-28T06:47:56.517Z,50.50
2023-04-28T06:50:24.904Z,50.43
2023-04-28T06:52:52.788Z,50.24
2023-04-28T06:55:22.403Z,49.62
2023-04-28T06:57:51.359Z,49.32
2023-04-28T07:00:19.676Z,49.01
2023-04-28T07:02:47.708Z,48.25
2023-04-28T07:05:17.182Z,47.95
2023-04-28T07:07:45.155Z,47.82
2023-04-28T07:10:13.388Z,47.92
2023-04-28T07:12:41.386Z,47.60
2023-04-28T07:15:10.472Z,46.73
2023-04-28T07:17:38.758Z,47.43
2023-04-28T07:20:07.972Z,47.42
2023-04-28T07:22:38.557Z,47.03
2023-04-28T07:25:06.849Z,46.89
2023-04-28T07:27:34.731Z,47.03
2023-04-28T07:30:11.594Z,46.76
2023-04-28T07:32:43.830Z,46.19
2023-04-28T07:35:11.762Z,46.64
2023-04-28T07:37:41.236Z,46.13
2023-04-28T07:40:10.100Z,45.56
2023-04-28T07:42:38.061Z,45.30
2023-04-28T07:45:07.074Z,44.94
2023-04-28T07:47:35.526Z,45.16
2023-04-28T07:50:05.268Z,44.47
2023-04-28T07:52:33.251Z,44.29
2023-04-28T07:55:03.072Z,44.34
2023-04-28T07:57:31.498Z,44.50
2023-04-28T07:59:59.718Z,43.82
2023-04-28T08:02:27.809Z,44.55
2023-04-28T08:04:55.953Z,44.18
2023-04-28T08:07:24.607Z,44.39
2023-04-28T08:09:53.899Z,44.05
2023-04-28T08:12:23.242Z,43.81
2023-04-28T08:14:51.169Z,43.17
2023-04-28T08:17:19.162Z,42.85
2023-04-28T08:19:47.607Z,42.94
2023-04-28T08:22:15.809Z,42.86
2023-04-28T08:24:43.759Z,42.85
2023-04-28T08:27:11.895Z,42.83
2023-04-28T08:29:41.262Z,42.49
2023-04-28T08:32:09.194Z,42.67
2023-04-28T08:34:37.121Z,42.29
2023-04-28T08:37:06.811Z,41.68
2023-04-28T08:39:35.390Z,41.35
2023-04-28T08:42:05.626Z,41.25
2023-04-28T08:44:38.618Z,41.05
2023-04-28T08:47:13.756Z,40.74
2023-04-28T08:49:42.543Z,40.63
2023-04-28T08:52:12.660Z,40.14
2023-04-28T08:54:41.693Z,39.79
2023-04-28T08:57:11.110Z,39.47
2023-04-28T08:59:40.729Z,39.09
2023-04-28T09:02:10.538Z,39.25
2023-04-28T09:04:39.019Z,38.81
2023-04-28T09:07:12.276Z,38.65
2023-04-28T09:09:40.976Z,38.95
2023-04-28T09:12:09.196Z,38.54
2023-04-28T09:14:38.520Z,37.29
2023-04-28T09:17:13.383Z,36.60
2023-04-28T09:19:43.323Z,35.79
2023-04-28T09:22:25.553Z,35.80
2023-04-28T09:24:55.412Z,35.23
2023-04-28T09:27:28.507Z,35.17
2023-04-28T09:29:56.622Z,35.12
2023-04-28T09:32:28.092Z,34.63
2023-04-28T09:34:57.475Z,34.33
2023-04-28T09:37:27.167Z,34.60
2023-04-28T09:39:56.010Z,34.27
2023-04-28T09:42:32.955Z,34.39
2023-04-28T09:45:02.935Z,34.13
2023-04-28T09:47:35.519Z,34.21
2023-04-28T09:50:06.102Z,34.79
2023-04-28T09:52:34.917Z,34.41
2023-04-28T09:55:03.992Z,34.57
2023-04-28T09:57:33.530Z,34.46
2023-04-28T10:00:02.470Z,34.50
2023-04-28T10:05:10.092Z,33.24
2023-04-28T10:07:40.059Z,33.15
2023-04-28T10:10:09.089Z,33.20
2023-04-28T10:12:38.607Z,33.48
2023-04-28T10:15:08.709Z,33.40
2023-04-28T10:17:38.308Z,33.28
2023-04-28T10:20:08.667Z,33.15
2023-04-28T10:22:59.077Z,32.74
2023-04-28T10:25:28.567Z,31.99
2023-04-28T10:27:57.233Z,31.84
2023-04-28T10:30:29.203Z,31.62
2023-04-28T10:33:27.477Z,31.97
2023-04-28T10:35:55.673Z,31.32
2023-04-28T10:38:23.584Z,30.93
2023-04-28T10:40:52.375Z,30.85
2023-04-28T10:43:40.365Z,30.95
2023-04-28T10:46:11.745Z,30.89
2023-04-28T10:49:08.292Z,31.30
2023-04-28T10:51:37.580Z,31.05
2023-04-28T10:54:28.230Z,30.91
2023-04-28T10:57:19.185Z,30.86
2023-04-28T10:59:51.840Z,30.79
2023-04-28T11:02:43.677Z,30.91
2023-04-28T11:05:19.416Z,30.79
2023-04-28T11:08:33.414Z,30.69
2023-04-28T11:11:18.293Z,30.66
2023-04-28T11:13:47.881Z,30.75
2023-04-28T11:16:17.744Z,31.37
2023-04-28T11:18:55.938Z,31.94
2023-04-28T11:21:28.110Z,32.15
2023-04-28T11:23:56.469Z,32.63
2023-04-28T11:26:24.765Z,32.88
2023-04-28T11:28:54.051Z,32.87
2023-04-28T11:31:24.289Z,33.79
2023-04-28T11:33:59.982Z,33.17
2023-04-28T11:36:31.780Z,32.71
2023-04-28T11:38:59.987Z,32.38
2023-04-28T11:41:27.990Z,32.91
2023-04-28T11:43:56.031Z,33.52
2023-04-28T11:46:25.761Z,33.75
2023-04-28T11:49:06.557Z,33.83
2023-04-28T11:51:39.953Z,34.02
2023-04-28T11:54:11.792Z,33.47
2023-04-28T11:56:40.647Z,33.55
2023-04-28T11:59:10.692Z,33.49
2023-04-28T12:01:47.043Z,33.78
2023-04-28T12:04:15.606Z,33.56
2023-04-28T12:06:45.068Z,34.18
2023-04-28T12:09:17.334Z,34.54
2023-04-28T12:11:58.146Z,34.71
2023-04-28T12:14:26.677Z,34.90
2023-04-28T12:16:54.671Z,34.82
2023-04-28T12:19:22.597Z,34.66
2023-04-28T12:22:05.706Z,34.74
2023-04-28T12:24:35.648Z,34.61
2023-04-28T12:27:21.709Z,34.38
2023-04-28T12:29:51.003Z,34.17
2023-04-28T12:32:20.355Z,33.56
2023-04-28T12:34:50.693Z,33.52
2023-04-28T12:37:22.425Z,33.53
2023-04-28T12:39:50.333Z,33.33
2023-04-28T12:42:18.202Z,32.84
2023-04-28T12:44:46.435Z,32.33
2023-04-28T12:47:14.504Z,31.72
2023-04-28T12:49:42.489Z,31.36
2023-04-28T12:52:10.791Z,31.17
2023-04-28T12:54:46.885Z,31.37
2023-04-28T12:57:15.191Z,31.47
2023-04-28T12:59:43.138Z,31.69
2023-04-28T13:02:11.510Z,32.20
2023-04-28T13:04:39.705Z,32.50
2023-04-28T13:07:08.302Z,32.65
2023-04-28T13:09:38.572Z,32.74
2023-04-28T13:12:08.527Z,32.24
2023-04-28T13:14:36.674Z,32.14
2023-04-28T13:17:04.963Z,31.79
2023-04-28T13:19:34.252Z,31.69
2023-04-28T13:22:05.180Z,32.31
2023-04-28T13:24:34.572Z,32.48
2023-04-28T13:27:04.086Z,32.64
2023-04-28T13:29:33.363Z,32.85
2023-04-28T13:32:01.434Z,32.99
2023-04-28T13:34:29.331Z,32.86
2023-04-28T13:36:57.500Z,32.86
2023-04-28T13:39:25.507Z,32.52
2023-04-28T13:41:53.431Z,32.87
2023-04-28T13:44:21.540Z,33.25
2023-04-28T13:46:50.875Z,33.24
2023-04-28T13:49:18.766Z,33.28
2023-04-28T13:51:46.602Z,33.01
2023-04-28T13:54:14.606Z,33.25
2023-04-28T13:56:42.519Z,33.16
2023-04-28T13:59:10.491Z,33.53
2023-04-28T14:01:38.599Z,33.50
2023-04-28T14:04:08.046Z,33.26
2023-04-28T14:06:36.055Z,33.57
2023-04-28T14:09:04.107Z,33.42
2023-04-28T14:11:31.993Z,33.56
2023-04-28T14:14:00.040Z,34.02
2023-04-28T14:16:29.072Z,34.14
2023-04-28T14:18:57.001Z,34.24
2023-04-28T14:21:26.675Z,33.93
2023-04-28T14:23:54.620Z,34.34
2023-04-28T14:26:23.822Z,34.45
2023-04-28T14:28:51.833Z,34.43
2023-04-28T14:31:19.837Z,34.56
2023-04-28T14:33:47.828Z,35.12
2023-04-28T14:36:15.818Z,35.23
2023-04-28T14:38:45.047Z,35.56
2023-04-28T14:41:12.949Z,35.72
2023-04-28T14:43:41.090Z,35.83
2023-04-28T14:46:09.103Z,35.97
2023-04-28T14:48:37.862Z,36.00
2023-04-28T14:51:05.926Z,35.70
2023-04-28T14:53:34.394Z,35.96
2023-04-28T14:56:17.895Z,36.02
2023-04-28T14:58:47.312Z,35.75
2023-04-28T15:01:15.317Z,36.75
2023-04-28T15:03:44.484Z,36.56
2023-04-28T15:06:13.277Z,36.49
2023-04-28T15:08:41.322Z,36.54
2023-04-28T15:11:10.842Z,37.12
2023-04-28T15:13:40.005Z,36.87
2023-04-28T15:16:09.965Z,37.12
2023-04-28T15:18:38.410Z,37.62
2023-04-28T15:21:07.366Z,37.42
2023-04-28T15:23:35.302Z,37.76
2023-04-28T15:26:03.595Z,37.78
2023-04-28T15:28:32.890Z,37.44
2023-04-28T15:31:00.731Z,37.85
2023-04-28T15:33:28.822Z,37.82
2023-04-28T15:35:56.724Z,38.18
2023-04-28T15:38:24.611Z,38.07
2023-04-28T15:40:52.546Z,37.88
2023-04-28T15:43:20.530Z,37.91
2023-04-28T15:45:49.806Z,38.04
2023-04-28T15:48:17.756Z,38.41
2023-04-28T15:50:46.583Z,38.02
2023-04-28T15:53:14.494Z,38.35
2023-04-28T15:55:42.788Z,38.43
2023-04-28T15:58:10.900Z,38.34
2023-04-28T16:00:40.577Z,38.40
2023-04-28T16:03:10.109Z,38.79
2023-04-28T16:05:38.863Z,38.67
2023-04-28T16:08:07.135Z,39.19
2023-04-28T16:10:35.048Z,39.26
2023-04-28T16:13:05.227Z,39.29
2023-04-28T16:15:34.323Z,39.00
2023-04-28T16:18:02.425Z,39.07
2023-04-28T16:20:31.849Z,39.08
2023-04-28T16:22:59.737Z,39.39
2023-04-28T16:25:27.843Z,39.21
2023-04-28T16:27:55.801Z,39.23
2023-04-28T16:30:23.978Z,39.60
2023-04-28T16:32:52.859Z,39.27
2023-04-28T16:35:21.688Z,39.37
2023-04-28T16:37:51.044Z,39.45
2023-04-28T16:40:19.393Z,39.71
2023-04-28T16:42:47.252Z,39.67
2023-04-28T16:45:15.563Z,39.27
2023-04-28T16:47:44.011Z,39.39
2023-04-28T16:50:14.451Z,39.07
2023-04-28T16:52:42.376Z,39.17
2023-04-28T16:55:11.816Z,39.12
2023-04-28T16:57:39.626Z,39.33
2023-04-28T17:00:09.360Z,39.30
2023-04-28T17:02:37.478Z,39.61
2023-04-28T17:05:06.090Z,39.71
2023-04-28T17:07:33.934Z,39.84
2023-04-28T17:10:01.964Z,39.90
2023-04-28T17:12:31.397Z,40.34
2023-04-28T17:14:59.234Z,40.40
2023-04-28T17:17:27.240Z,40.97
2023-04-28T17:19:55.196Z,41.00
2023-04-28T17:22:23.089Z,41.33
2023-04-28T17:24:51.011Z,41.59
2023-04-28T17:27:18.917Z,41.92
2023-04-28T17:29:48.885Z,42.11
2023-04-28T17:32:16.940Z,42.28
2023-04-28T17:34:44.846Z,42.63
2023-04-28T17:37:12.815Z,43.00
2023-04-28T17:39:40.674Z,43.53
2023-04-28T17:42:08.648Z,42.92
2023-04-28T17:44:36.638Z,42.89
2023-04-28T17:47:05.914Z,42.84
2023-04-28T17:49:33.853Z,43.62
2023-04-28T17:52:01.871Z,44.08
2023-04-28T17:54:30.864Z,44.15
2023-04-28T17:56:58.690Z,44.24
2023-04-28T17:59:26.679Z,45.30
2023-04-28T18:01:56.387Z,45.30
2023-04-28T18:04:25.789Z,45.45
2023-04-28T18:06:53.688Z,45.56
2023-04-28T18:09:21.614Z,46.18
2023-04-28T18:11:49.571Z,47.00
2023-04-28T18:14:18.484Z,46.77
2023-04-28T18:16:46.733Z,47.40
2023-04-28T18:19:14.657Z,47.89
2023-04-28T18:21:43.911Z,47.90
2023-04-28T18:24:11.933Z,48.51
2023-04-28T18:26:39.769Z,48.68
2023-04-28T18:29:07.613Z,48.77
2023-04-28T18:31:35.689Z,49.17
2023-04-28T18:34:05.065Z,49.57
2023-04-28T18:36:34.824Z,49.74
2023-04-28T18:39:06.183Z,49.90
2023-04-28T18:41:35.789Z,50.65
2023-04-28T18:44:04.018Z,50.91
2023-04-28T18:46:32.748Z,51.70
2023-04-28T18:49:00.747Z,51.90
2023-04-28T18:51:28.639Z,52.60
2023-04-28T18:53:56.908Z,52.35
2023-04-28T18:56:26.144Z,52.29
2023-04-28T18:58:54.048Z,52.49
2023-04-28T19:01:24.801Z,52.74
2023-04-28T19:03:53.228Z,53.24
2023-04-28T19:06:21.938Z,53.11
2023-04-28T19:08:49.816Z,53.31
2023-04-28T19:11:17.780Z,53.99
2023-04-28T19:13:47.159Z,54.57
2023-04-28T19:16:15.146Z,54.32
2023-04-28T19:18:44.438Z,54.92
2023-04-28T19:21:13.727Z,55.48
2023-04-28T19:23:41.785Z,55.41
2023-04-28T19:26:10.598Z,55.26
2023-04-28T19:28:38.470Z,54.93
2023-04-28T19:31:09.343Z,54.61
2023-04-28T19:33:37.285Z,54.82
2023-04-28T19:36:09.747Z,55.77
2023-04-28T19:38:40.236Z,58.25
2023-04-28T19:41:08.222Z,59.56
2023-04-28T19:43:36.644Z,59.66
2023-04-28T19:46:05.002Z,59.94
2023-04-28T19:48:34.524Z,59.53
2023-04-28T19:51:02.371Z,58.86
2023-04-28T19:53:30.285Z,59.33
2023-04-28T19:56:01.798Z,60.05
2023-04-28T19:58:29.730Z,60.27
2023-04-28T20:00:58.284Z,60.77
2023-04-28T20:03:26.327Z,60.86
2023-04-28T20:05:55.631Z,61.30
2023-04-28T20:08:25.547Z,62.04
2023-04-28T20:10:54.358Z,62.87
2023-04-28T20:13:22.241Z,62.89
2023-04-28T20:15:50.211Z,62.63
2023-04-28T20:18:18.126Z,61.96
2023-04-28T20:20:46.074Z,61.63
2023-04-28T20:23:15.315Z,61.69
2023-04-28T20:25:43.247Z,61.79
2023-04-28T20:28:11.349Z,61.22
2023-04-28T20:30:41.857Z,61.18
2023-04-28T20:33:10.487Z,61.12
2023-04-28T20:35:39.022Z,61.26
2023-04-28T20:38:07.015Z,61.87
2023-04-28T20:40:37.069Z,61.74
2023-04-28T20:43:04.981Z,62.01
2023-04-28T20:45:34.535Z,61.64
2023-04-28T20:48:03.118Z,62.26
2023-04-28T20:50:33.336Z,63.18
2023-04-28T20:53:01.478Z,63.18
2023-04-28T20:55:29.453Z,62.93
2023-04-28T20:57:58.638Z,62.75
2023-04-28T21:00:26.592Z,62.33
2023-04-28T21:02:54.742Z,62.12
2023-04-28T21:05:23.722Z,62.67
2023-04-28T21:07:51.693Z,62.60
2023-04-28T21:10:19.747Z,62.68
2023-04-28T21:12:47.601Z,62.82
2023-04-28T21:15:17.219Z,62.89
2023-04-28T21:17:45.086Z,63.14
2023-04-28T21:20:14.625Z,63.70
2023-04-28T21:22:42.495Z,64.38
2023-04-28T21:25:10.741Z,64.75
2023-04-28T21:27:38.660Z,64.62
2023-04-28T21:30:07.765Z,64.83
2023-04-28T21:32:37.063Z,64.97
2023-04-28T21:35:05.450Z,65.27
2023-04-28T21:37:33.406Z,65.26
2023-04-28T21:40:01.964Z,65.22
2023-04-28T21:42:31.762Z,64.65
2023-04-28T21:44:59.879Z,64.13
2023-04-28T21:47:28.292Z,63.88
2023-04-28T21:49:57.618Z,64.12
2023-04-28T21:52:25.661Z,64.41
2023-04-28T21:54:53.766Z,64.69
2023-04-28T21:57:21.727Z,64.65
2023-04-28T21:59:50.716Z,64.32
2023-04-28T22:02:18.975Z,64.10
2023-04-28T22:04:46.976Z,64.24
2023-04-28T22:07:16.205Z,64.58
2023-04-28T22:09:44.161Z,64.31
2023-04-28T22:12:12.092Z,64.60
2023-04-28T22:14:41.544Z,65.51
2023-04-28T22:17:09.945Z,66.34
2023-04-28T22:19:38.047Z,66.18
2023-04-28T22:22:07.673Z,65.71
2023-04-28T22:24:37.168Z,66.21
2023-04-28T22:27:05.264Z,66.06
2023-04-28T22:29:33.178Z,66.05
2023-04-28T22:32:02.593Z,65.65
2023-04-28T22:34:30.729Z,66.82
2023-04-28T22:36:58.663Z,66.16
2023-04-28T22:39:27.065Z,66.36
2023-04-28T22:41:56.347Z,66.05
2023-04-28T22:44:24.256Z,66.38
2023-04-28T22:46:52.938Z,66.53
2023-04-28T22:49:24.716Z,66.40
2023-04-28T22:51:52.838Z,67.22
2023-04-28T22:54:20.969Z,67.19
2023-04-28T22:56:50.310Z,67.25
2023-04-28T22:59:22.135Z,66.62
2023-04-28T23:01:50.348Z,66.47
2023-04-28T23:04:20.272Z,67.07
2023-04-28T23:06:48.634Z,66.25
2023-04-28T23:09:16.609Z,66.63
2023-04-28T23:11:44.498Z,66.51
2023-04-28T23:14:12.463Z,66.04
2023-04-28T23:16:42.085Z,65.93
2023-04-28T23:19:10.136Z,65.51
2023-04-28T23:21:38.522Z,65.91
2023-04-28T23:24:07.466Z,64.94
2023-04-28T23:26:35.521Z,65.17
2023-04-28T23:29:03.467Z,66.06
2023-04-28T23:31:31.710Z,65.83
2023-04-28T23:34:00.978Z,65.78
2023-04-28T23:36:28.999Z,66.21
2023-04-28T23:38:56.884Z,66.64
2023-04-28T23:41:25.015Z,67.09
2023-04-28T23:43:53.035Z,67.26
2023-04-28T23:46:21.457Z,67.12
2023-04-28T23:48:49.360Z,68.04
2023-04-28T23:51:18.648Z,68.58
2023-04-28T23:53:46.562Z,68.06
2023-04-28T23:56:14.547Z,68.43
2023-04-28T23:58:42.863Z,69.60
